createdAt,value
2023-02-09T00:01:35.069Z,1.70
2023-02-09T00:04:50.323Z,1.60
2023-02-09T00:08:31.101Z,2.10
2023-02-09T00:12:22.539Z,1.90
2023-02-09T00:16:12.432Z,1.40
2023-02-09T00:20:02.306Z,2.20
2023-02-09T00:23:43.074Z,1.80
2023-02-09T00:27:33.374Z,1.60
2023-02-09T00:31:23.051Z,1.80
2023-02-09T00:35:12.209Z,1.50
2023-02-09T00:39:01.924Z,2.00
2023-02-09T00:42:51.738Z,1.60
2023-02-09T00:46:34.639Z,1.60
2023-02-09T00:50:23.904Z,1.70
2023-02-09T00:54:13.810Z,2.00
2023-02-09T00:57:43.111Z,1.40
2023-02-09T01:01:15.858Z,1.50
2023-02-09T01:04:48.827Z,2.20
2023-02-09T01:08:10.304Z,1.20
2023-02-09T01:11:59.197Z,2.10
2023-02-09T01:15:32.578Z,2.00
2023-02-09T01:22:51.878Z,1.50
2023-02-09T01:26:41.651Z,1.40
2023-02-09T01:30:12.085Z,1.40
2023-02-09T01:34:01.976Z,1.80
2023-02-09T01:37:51.873Z,1.90
2023-02-09T01:41:36.611Z,2.20
2023-02-09T01:45:26.278Z,1.70
2023-02-09T01:49:06.029Z,2.00
2023-02-09T01:53:04.543Z,2.20
2023-02-09T01:56:53.401Z,1.90
2023-02-09T02:00:10.918Z,1.50
2023-02-09T02:03:46.418Z,1.80
2023-02-09T02:07:36.614Z,1.90
2023-02-09T02:11:17.588Z,2.10
2023-02-09T02:14:55.090Z,1.40
2023-02-09T02:18:48.559Z,1.60
2023-02-09T02:22:38.458Z,2.10
2023-02-09T02:26:46.404Z,1.70
2023-02-09T02:30:19.720Z,1.50
2023-02-09T02:34:28.017Z,1.50
2023-02-09T02:38:15.265Z,1.80
2023-02-09T02:42:10.419Z,2.00
2023-02-09T02:46:02.446Z,2.00
2023-02-09T02:50:02.001Z,1.40
2023-02-09T02:53:42.057Z,2.30
2023-02-09T02:57:31.619Z,1.50
2023-02-09T03:00:47.561Z,1.90
2023-02-09T03:04:37.560Z,2.10
2023-02-09T03:08:08.557Z,1.80
2023-02-09T03:11:32.552Z,1.50
2023-02-09T03:15:45.862Z,2.40
2023-02-09T03:19:43.287Z,1.80
2023-02-09T03:23:32.569Z,2.30
2023-02-09T03:27:22.012Z,1.70
2023-02-09T03:31:12.423Z,2.00
2023-02-09T03:34:51.045Z,2.30
2023-02-09T03:38:39.636Z,2.50
2023-02-09T03:42:20.879Z,2.00
2023-02-09T03:46:03.353Z,1.40
2023-02-09T03:49:52.981Z,2.20
2023-02-09T03:53:42.721Z,1.50
2023-02-09T03:57:32.540Z,2.30
2023-02-09T04:01:05.539Z,2.80
2023-02-09T04:04:55.337Z,2.90
2023-02-09T04:08:45.726Z,1.80
2023-02-09T04:12:35.302Z,1.60
2023-02-09T04:16:25.247Z,2.40
2023-02-09T04:20:15.098Z,2.40
2023-02-09T04:24:04.865Z,3.00
2023-02-09T04:27:54.518Z,2.00
2023-02-09T04:31:32.104Z,2.70
2023-02-09T04:35:22.149Z,2.60
2023-02-09T04:39:04.970Z,2.70
2023-02-09T04:42:54.856Z,3.10
2023-02-09T04:46:45.746Z,2.70
2023-02-09T04:50:34.239Z,2.50
2023-02-09T04:54:15.728Z,2.70
2023-02-09T04:58:02.855Z,3.20
2023-02-09T05:01:55.057Z,2.80
2023-02-09T05:05:45.093Z,2.40
2023-02-09T05:09:34.060Z,2.30
2023-02-09T05:13:09.508Z,2.50
2023-02-09T05:16:59.455Z,2.10
2023-02-09T05:20:41.302Z,2.40
2023-02-09T05:24:19.968Z,2.10
2023-02-09T05:28:09.789Z,2.70
2023-02-09T05:32:01.393Z,2.50
2023-02-09T05:35:51.133Z,2.40
2023-02-09T05:39:32.425Z,3.60
2023-02-09T05:42:45.235Z,2.70
2023-02-09T05:46:35.130Z,2.40
2023-02-09T05:50:25.067Z,2.60
2023-02-09T05:54:09.803Z,2.70
2023-02-09T05:57:56.323Z,2.30
2023-02-09T06:01:46.483Z,3.30
2023-02-09T06:05:36.900Z,3.20
2023-02-09T06:09:25.704Z,2.10
2023-02-09T06:13:07.968Z,2.40
2023-02-09T06:16:57.902Z,3.20
2023-02-09T06:20:48.218Z,3.00
2023-02-09T06:24:20.886Z,2.90
2023-02-09T06:27:59.429Z,2.70
2023-02-09T06:31:43.968Z,2.70
2023-02-09T06:35:33.815Z,2.30
2023-02-09T06:39:22.272Z,2.50
2023-02-09T06:43:05.011Z,2.50
2023-02-09T06:46:47.724Z,2.40
2023-02-09T06:50:37.586Z,2.50
2023-02-09T06:54:27.295Z,2.60
2023-02-09T06:58:09.904Z,2.60
2023-02-09T07:05:19.985Z,3.20
2023-02-09T07:09:02.710Z,2.20
2023-02-09T07:12:52.810Z,2.20
2023-02-09T07:16:35.349Z,2.00
2023-02-09T07:19:45.093Z,2.60
2023-02-09T07:23:35.522Z,2.50
2023-02-09T07:27:11.329Z,2.70
2023-02-09T07:31:01.104Z,2.30
2023-02-09T07:34:49.791Z,3.40
2023-02-09T07:38:39.546Z,2.00
2023-02-09T07:42:29.762Z,2.10
2023-02-09T07:46:19.593Z,3.10
2023-02-09T07:50:09.237Z,2.80
2023-02-09T07:53:58.223Z,2.50
2023-02-09T07:57:48.099Z,2.70
2023-02-09T08:01:37.966Z,3.40
2023-02-09T08:05:10.593Z,3.40
2023-02-09T08:08:40.279Z,1.90
2023-02-09T08:12:33.033Z,3.30
2023-02-09T08:16:25.461Z,2.10
2023-02-09T08:20:14.232Z,2.50
2023-02-09T08:24:03.977Z,2.70
2023-02-09T08:27:39.484Z,2.70
2023-02-09T08:31:29.397Z,2.40
2023-02-09T08:35:19.596Z,2.60
2023-02-09T08:38:54.616Z,3.30
2023-02-09T08:42:34.572Z,2.40
2023-02-09T08:46:00.807Z,3.20
2023-02-09T08:49:43.242Z,2.90
2023-02-09T08:53:09.670Z,2.70
2023-02-09T08:56:21.951Z,2.50
2023-02-09T08:59:43.317Z,2.80
2023-02-09T09:03:23.174Z,2.70
2023-02-09T09:07:05.211Z,2.40
2023-02-09T09:10:54.919Z,2.60
2023-02-09T09:14:33.069Z,2.80
2023-02-09T09:23:11.617Z,2.50
2023-02-09T09:31:06.160Z,2.20
2023-02-09T10:13:44.739Z,1.10
2023-02-09T10:17:30.223Z,1.50
2023-02-09T10:21:23.158Z,1.50
2023-02-09T10:25:13.150Z,2.00
2023-02-09T10:29:03.117Z,2.10
2023-02-09T10:32:46.996Z,2.00
2023-02-09T10:36:22.648Z,2.60
2023-02-09T10:40:05.678Z,2.00
2023-02-09T10:44:00.753Z,1.90
2023-02-09T10:47:53.383Z,2.10
2023-02-09T10:51:58.393Z,1.60
2023-02-09T10:55:49.735Z,1.90
2023-02-09T10:59:42.460Z,2.20
2023-02-09T11:03:35.321Z,2.10
2023-02-09T11:07:24.998Z,1.80
2023-02-09T11:11:14.454Z,1.80
2023-02-09T11:15:04.217Z,1.60
2023-02-09T11:19:00.011Z,1.80
2023-02-09T11:23:02.589Z,2.60
2023-02-09T11:27:19.824Z,2.40
2023-02-09T11:31:12.698Z,2.20
2023-02-09T11:34:28.613Z,1.50
2023-02-09T11:38:24.910Z,1.90
2023-02-09T11:42:13.471Z,1.80
2023-02-09T11:46:03.387Z,1.80
2023-02-09T11:49:05.135Z,2.10
2023-02-09T11:52:12.689Z,1.90
2023-02-09T11:56:05.276Z,1.80
2023-02-09T11:59:59.766Z,1.80
2023-02-09T12:03:45.161Z,2.20
2023-02-09T12:07:41.085Z,2.10
2023-02-09T12:11:32.179Z,2.10
2023-02-09T12:15:08.365Z,1.40
2023-02-09T12:18:39.209Z,1.40
2023-02-09T12:21:38.973Z,2.20
2023-02-09T12:29:12.250Z,1.70
2023-02-09T12:33:01.571Z,1.90
2023-02-09T12:37:00.215Z,1.80
2023-02-09T12:40:59.425Z,1.80
2023-02-09T12:44:11.629Z,1.60
2023-02-09T12:47:27.544Z,1.50
2023-02-09T12:51:00.235Z,1.60
2023-02-09T12:55:09.460Z,1.60
2023-02-09T12:58:57.700Z,1.80
2023-02-09T13:02:36.746Z,1.60
2023-02-09T13:05:55.402Z,1.80
2023-02-09T13:09:45.390Z,1.50
2023-02-09T13:13:37.838Z,1.80
2023-02-09T13:17:27.849Z,1.30
2023-02-09T13:21:22.945Z,1.70
2023-02-09T13:25:15.716Z,2.40
2023-02-09T13:29:22.007Z,2.10
2023-02-09T13:33:21.084Z,2.00
2023-02-09T13:37:08.008Z,2.20
2023-02-09T13:40:38.450Z,2.00
2023-02-09T13:44:28.429Z,1.70
2023-02-09T13:48:18.653Z,1.50
2023-02-09T13:52:07.635Z,1.80
2023-02-09T13:56:04.110Z,1.90
2023-02-09T13:59:36.236Z,1.90
2023-02-09T14:03:22.722Z,1.30
2023-02-09T14:07:30.900Z,2.10
2023-02-09T14:11:22.970Z,2.40
2023-02-09T14:15:13.488Z,2.00
2023-02-09T14:18:23.538Z,2.30
2023-02-09T14:22:07.724Z,2.20
2023-02-09T14:25:58.138Z,2.50
2023-02-09T14:30:06.213Z,2.00
2023-02-09T14:33:56.224Z,2.80
2023-02-09T14:37:29.721Z,2.00
2023-02-09T14:41:22.788Z,1.90
2023-02-09T14:45:15.776Z,1.60
2023-02-09T14:49:21.086Z,2.30
2023-02-09T14:53:12.957Z,2.30
2023-02-09T14:57:03.988Z,2.10
2023-02-09T15:00:52.706Z,1.70
2023-02-09T15:04:42.270Z,2.10
2023-02-09T15:08:33.127Z,2.60
2023-02-09T15:12:26.200Z,2.10
2023-02-09T15:16:18.890Z,1.80
2023-02-09T15:20:12.835Z,2.60
2023-02-09T15:27:32.523Z,1.70
2023-02-09T15:31:25.748Z,2.00
2023-02-09T15:35:15.976Z,2.50
2023-02-09T15:38:52.238Z,2.70
2023-02-09T15:42:41.097Z,1.80
2023-02-09T15:46:29.503Z,1.90
2023-02-09T15:50:19.685Z,2.30
2023-02-09T15:54:10.204Z,2.50
2023-02-09T15:58:00.770Z,2.50
2023-02-09T16:01:39.665Z,2.50
2023-02-09T16:05:15.981Z,1.90
2023-02-09T16:12:36.437Z,2.40
2023-02-09T16:16:26.547Z,2.80
2023-02-09T16:20:16.387Z,2.70
2023-02-09T16:24:06.884Z,2.70
2023-02-09T16:27:51.011Z,2.20
2023-02-09T16:31:50.446Z,3.20
2023-02-09T16:35:40.974Z,2.30
2023-02-09T16:39:31.766Z,2.70
2023-02-09T16:43:22.519Z,2.80
2023-02-09T16:46:36.934Z,3.00
2023-02-09T16:50:37.789Z,3.10
2023-02-09T16:54:13.638Z,2.20
2023-02-09T16:57:50.018Z,3.30
2023-02-09T17:01:35.828Z,2.80
2023-02-09T17:05:19.061Z,3.80
2023-02-09T17:09:09.642Z,2.70
2023-02-09T17:13:00.458Z,3.20
2023-02-09T17:16:36.947Z,3.00
2023-02-09T17:20:27.342Z,2.50
2023-02-09T17:24:21.629Z,3.30
2023-02-09T17:28:11.877Z,3.60
2023-02-09T17:32:01.846Z,3.40
2023-02-09T17:36:30.048Z,3.60
2023-02-09T17:40:10.284Z,3.50
2023-02-09T17:43:53.250Z,2.90
2023-02-09T17:47:15.942Z,4.10
2023-02-09T17:50:57.725Z,4.00
2023-02-09T17:54:12.903Z,2.80
2023-02-09T17:58:03.037Z,2.40
2023-02-09T18:01:58.650Z,3.50
2023-02-09T18:05:42.316Z,2.70
2023-02-09T18:09:35.449Z,2.50
2023-02-09T18:13:18.360Z,3.10
2023-02-09T18:17:08.813Z,3.50
2023-02-09T18:20:58.981Z,2.80
2023-02-09T18:23:48.564Z,3.10
2023-02-09T18:27:20.591Z,2.50
2023-02-09T18:31:10.895Z,3.30
2023-02-09T18:34:45.315Z,2.50
2023-02-09T18:38:33.983Z,2.90
2023-02-09T18:41:32.368Z,2.60
2023-02-09T18:44:19.660Z,2.00
2023-02-09T18:47:59.052Z,2.70
2023-02-09T18:51:44.520Z,2.80
2023-02-09T18:55:08.545Z,2.30
2023-02-09T18:58:17.773Z,3.00
2023-02-09T19:01:20.361Z,2.80
2023-02-09T19:04:44.368Z,1.80
2023-02-09T19:08:11.368Z,2.60
2023-02-09T19:11:32.877Z,2.20
2023-02-09T19:15:06.808Z,2.80
2023-02-09T19:18:39.192Z,2.00
2023-02-09T19:22:29.484Z,2.60
2023-02-09T19:25:58.598Z,2.50
2023-02-09T19:29:49.514Z,2.60
2023-02-09T19:33:30.182Z,2.90
2023-02-09T19:37:13.251Z,2.40
2023-02-09T19:41:09.528Z,2.70
2023-02-09T19:44:51.469Z,2.50
2023-02-09T19:48:35.202Z,2.00
2023-02-09T19:52:25.301Z,2.80
2023-02-09T19:56:04.960Z,2.20
2023-02-09T19:59:47.879Z,2.30
2023-02-09T20:03:23.389Z,2.30
2023-02-09T20:07:13.945Z,2.20
2023-02-09T20:10:30.013Z,2.50
2023-02-09T20:13:43.566Z,1.70
2023-02-09T20:16:51.183Z,2.30
2023-02-09T20:20:16.306Z,2.00
2023-02-09T20:23:39.048Z,2.30
2023-02-09T20:30:34.266Z,1.60
2023-02-09T20:34:08.886Z,1.80
2023-02-09T20:37:59.261Z,2.00
2023-02-09T20:41:49.493Z,1.70
2023-02-09T20:45:39.367Z,2.00
2023-02-09T20:49:02.653Z,2.00
2023-02-09T20:52:52.100Z,2.40
2023-02-09T20:56:24.129Z,1.50
2023-02-09T21:00:14.693Z,1.70
2023-02-09T21:03:18.188Z,2.00
2023-02-09T21:07:05.345Z,2.20
2023-02-09T21:10:31.350Z,1.60
2023-02-09T21:14:27.618Z,1.60
2023-02-09T21:18:19.664Z,2.00
2023-02-09T21:22:00.394Z,2.10
2023-02-09T21:25:50.425Z,1.80
2023-02-09T21:29:30.459Z,1.50
2023-02-09T21:33:20.482Z,1.50
2023-02-09T21:37:03.679Z,1.40
2023-02-09T21:40:46.779Z,1.60
2023-02-09T21:44:23.805Z,1.50
2023-02-09T21:48:14.334Z,1.70
2023-02-09T21:52:05.214Z,1.50
2023-02-09T21:55:49.263Z,1.20
2023-02-09T21:59:39.375Z,1.80
2023-02-09T22:03:32.320Z,1.30
2023-02-09T22:07:24.218Z,2.00
2023-02-09T22:10:50.672Z,1.80
2023-02-09T22:14:41.607Z,1.30
2023-02-09T22:18:31.905Z,1.50
2023-02-09T22:22:13.362Z,2.00
2023-02-09T22:26:03.488Z,1.40
2023-02-09T22:29:46.545Z,1.70
2023-02-09T22:33:36.923Z,1.40
2023-02-09T22:37:27.157Z,1.70
2023-02-09T22:41:17.620Z,1.80
2023-02-09T22:45:07.713Z,1.50
2023-02-09T22:48:57.662Z,2.00
2023-02-09T22:52:49.750Z,1.90
2023-02-09T22:56:26.432Z,1.40
2023-02-09T23:00:17.034Z,2.30
2023-02-09T23:03:50.105Z,1.60
2023-02-09T23:07:23.161Z,1.30
2023-02-09T23:11:10.490Z,1.70
2023-02-09T23:14:54.741Z,1.20
2023-02-09T23:18:28.164Z,1.80
2023-02-09T23:22:18.006Z,1.40
2023-02-09T23:26:08.312Z,1.70
2023-02-09T23:29:49.131Z,1.30
2023-02-09T23:33:24.023Z,1.60
2023-02-09T23:37:19.115Z,1.40
2023-02-09T23:41:18.062Z,1.30
2023-02-09T23:45:08.313Z,1.70
2023-02-09T23:48:58.414Z,1.50
2023-02-09T23:52:41.358Z,1.70
2023-02-09T23:56:14.337Z,1.70
2023-02-09T23:59:48.779Z,1.40
